sensor_id;sensor_type;location;lat;lon;timestamp;P1;durP1;ratioP1;P2;durP2;ratioP2
82409;SDS011;72049;51.766;6.846;2023-09-30T00:02:25;7.43;;;2.50;;
82409;SDS011;72049;51.766;6.846;2023-09-30T00:05:03;12.20;;;3.08;;
82409;SDS011;72049;51.766;6.846;2023-09-30T00:07:29;9.82;;;2.85;;
82409;SDS011;72049;51.766;6.846;2023-09-30T00:10:03;11.52;;;3.25;;
82409;SDS011;72049;51.766;6.846;2023-09-30T00:15:03;12.27;;;3.28;;
82409;SDS011;72049;51.766;6.846;2023-09-30T00:17:29;11.40;;;2.72;;
82409;SDS011;72049;51.766;6.846;2023-09-30T00:19:54;12.18;;;3.13;;
82409;SDS011;72049;51.766;6.846;2023-09-30T00:22:21;10.75;;;3.20;;
82409;SDS011;72049;51.766;6.846;2023-09-30T00:24:52;10.48;;;2.72;;
82409;SDS011;72049;51.766;6.846;2023-09-30T00:27:18;10.98;;;2.33;;
82409;SDS011;72049;51.766;6.846;2023-09-30T00:29:43;9.80;;;2.70;;
82409;SDS011;72049;51.766;6.846;2023-09-30T00:32:20;16.33;;;3.05;;
82409;SDS011;72049;51.766;6.846;2023-09-30T00:34:46;9.48;;;2.92;;
82409;SDS011;72049;51.766;6.846;2023-09-30T00:37:11;9.77;;;3.08;;
82409;SDS011;72049;51.766;6.846;2023-09-30T00:39:37;7.90;;;2.30;;
82409;SDS011;72049;51.766;6.846;2023-09-30T00:42:02;10.20;;;3.00;;
82409;SDS011;72049;51.766;6.846;2023-09-30T00:44:29;11.70;;;4.05;;
82409;SDS011;72049;51.766;6.846;2023-09-30T00:46:55;10.05;;;3.35;;
82409;SDS011;72049;51.766;6.846;2023-09-30T00:49:21;13.00;;;2.90;;
82409;SDS011;72049;51.766;6.846;2023-09-30T00:51:46;10.25;;;3.15;;
82409;SDS011;72049;51.766;6.846;2023-09-30T00:54:12;12.15;;;3.20;;
82409;SDS011;72049;51.766;6.846;2023-09-30T00:56:39;9.50;;;3.00;;
82409;SDS011;72049;51.766;6.846;2023-09-30T00:59:08;11.40;;;3.38;;
82409;SDS011;72049;51.766;6.846;2023-09-30T01:01:34;10.30;;;3.58;;
82409;SDS011;72049;51.766;6.846;2023-09-30T01:04:00;11.05;;;3.15;;
82409;SDS011;72049;51.766;6.846;2023-09-30T01:06:26;8.27;;;3.08;;
82409;SDS011;72049;51.766;6.846;2023-09-30T01:08:52;9.38;;;3.03;;
82409;SDS011;72049;51.766;6.846;2023-09-30T01:11:21;9.40;;;3.63;;
82409;SDS011;72049;51.766;6.846;2023-09-30T01:13:46;10.25;;;3.00;;
82409;SDS011;72049;51.766;6.846;2023-09-30T01:16:12;10.88;;;2.95;;
82409;SDS011;72049;51.766;6.846;2023-09-30T01:18:49;10.38;;;2.88;;
82409;SDS011;72049;51.766;6.846;2023-09-30T01:21:23;10.13;;;3.35;;
82409;SDS011;72049;51.766;6.846;2023-09-30T01:23:49;11.27;;;3.08;;
82409;SDS011;72049;51.766;6.846;2023-09-30T01:26:14;12.17;;;3.43;;
82409;SDS011;72049;51.766;6.846;2023-09-30T01:28:39;10.88;;;3.67;;
82409;SDS011;72049;51.766;6.846;2023-09-30T01:31:05;9.02;;;4.18;;
82409;SDS011;72049;51.766;6.846;2023-09-30T01:33:31;11.52;;;3.42;;
82409;SDS011;72049;51.766;6.846;2023-09-30T01:35:57;12.13;;;3.50;;
82409;SDS011;72049;51.766;6.846;2023-09-30T01:38:23;9.68;;;2.88;;
82409;SDS011;72049;51.766;6.846;2023-09-30T01:40:48;8.95;;;3.33;;
82409;SDS011;72049;51.766;6.846;2023-09-30T01:43:17;9.95;;;3.53;;
82409;SDS011;72049;51.766;6.846;2023-09-30T01:45:42;10.85;;;3.20;;
82409;SDS011;72049;51.766;6.846;2023-09-30T01:48:08;12.52;;;3.47;;
82409;SDS011;72049;51.766;6.846;2023-09-30T01:50:36;8.98;;;3.05;;
82409;SDS011;72049;51.766;6.846;2023-09-30T01:56:33;7.82;;;3.13;;
82409;SDS011;72049;51.766;6.846;2023-09-30T01:58:59;12.10;;;4.20;;
82409;SDS011;72049;51.766;6.846;2023-09-30T02:01:24;14.82;;;3.92;;
82409;SDS011;72049;51.766;6.846;2023-09-30T02:03:58;11.98;;;3.83;;
82409;SDS011;72049;51.766;6.846;2023-09-30T02:06:24;11.73;;;3.85;;
82409;SDS011;72049;51.766;6.846;2023-09-30T02:08:49;11.98;;;4.32;;
82409;SDS011;72049;51.766;6.846;2023-09-30T02:11:14;9.77;;;3.40;;
82409;SDS011;72049;51.766;6.846;2023-09-30T02:13:43;14.30;;;3.97;;
82409;SDS011;72049;51.766;6.846;2023-09-30T02:16:13;10.52;;;3.20;;
82409;SDS011;72049;51.766;6.846;2023-09-30T02:18:41;9.90;;;3.50;;
82409;SDS011;72049;51.766;6.846;2023-09-30T02:21:07;11.65;;;3.25;;
82409;SDS011;72049;51.766;6.846;2023-09-30T02:23:34;10.93;;;4.18;;
82409;SDS011;72049;51.766;6.846;2023-09-30T02:25:59;9.98;;;3.67;;
82409;SDS011;72049;51.766;6.846;2023-09-30T02:28:25;9.20;;;3.13;;
82409;SDS011;72049;51.766;6.846;2023-09-30T02:30:50;12.50;;;3.50;;
82409;SDS011;72049;51.766;6.846;2023-09-30T02:33:16;11.50;;;3.67;;
82409;SDS011;72049;51.766;6.846;2023-09-30T02:35:44;10.30;;;4.60;;
82409;SDS011;72049;51.766;6.846;2023-09-30T02:38:17;10.65;;;3.58;;
82409;SDS011;72049;51.766;6.846;2023-09-30T02:40:47;10.15;;;3.00;;
82409;SDS011;72049;51.766;6.846;2023-09-30T02:43:13;8.63;;;3.28;;
82409;SDS011;72049;51.766;6.846;2023-09-30T02:45:39;11.00;;;3.47;;
82409;SDS011;72049;51.766;6.846;2023-09-30T02:48:07;12.07;;;4.05;;
82409;SDS011;72049;51.766;6.846;2023-09-30T02:50:33;9.65;;;3.65;;
82409;SDS011;72049;51.766;6.846;2023-09-30T02:52:59;11.30;;;3.75;;
82409;SDS011;72049;51.766;6.846;2023-09-30T02:55:30;8.67;;;3.33;;
82409;SDS011;72049;51.766;6.846;2023-09-30T02:58:04;11.40;;;4.38;;
82409;SDS011;72049;51.766;6.846;2023-09-30T03:00:30;10.38;;;4.28;;
82409;SDS011;72049;51.766;6.846;2023-09-30T03:02:58;12.23;;;3.42;;
82409;SDS011;72049;51.766;6.846;2023-09-30T03:05:24;12.18;;;4.18;;
82409;SDS011;72049;51.766;6.846;2023-09-30T03:07:49;11.38;;;4.22;;
82409;SDS011;72049;51.766;6.846;2023-09-30T03:10:20;9.52;;;3.83;;
82409;SDS011;72049;51.766;6.846;2023-09-30T03:12:49;11.00;;;3.38;;
82409;SDS011;72049;51.766;6.846;2023-09-30T03:15:14;10.30;;;3.95;;
82409;SDS011;72049;51.766;6.846;2023-09-30T03:17:40;10.93;;;3.90;;
82409;SDS011;72049;51.766;6.846;2023-09-30T03:20:06;11.85;;;3.58;;
82409;SDS011;72049;51.766;6.846;2023-09-30T03:22:36;11.07;;;4.50;;
82409;SDS011;72049;51.766;6.846;2023-09-30T03:25:02;10.30;;;4.15;;
82409;SDS011;72049;51.766;6.846;2023-09-30T03:27:27;10.68;;;4.78;;
82409;SDS011;72049;51.766;6.846;2023-09-30T03:29:52;11.40;;;3.90;;
82409;SDS011;72049;51.766;6.846;2023-09-30T03:32:18;11.95;;;4.28;;
82409;SDS011;72049;51.766;6.846;2023-09-30T03:34:43;11.77;;;3.88;;
82409;SDS011;72049;51.766;6.846;2023-09-30T03:37:11;10.55;;;4.10;;
82409;SDS011;72049;51.766;6.846;2023-09-30T03:39:36;10.52;;;3.92;;
82409;SDS011;72049;51.766;6.846;2023-09-30T03:42:02;11.98;;;3.83;;
82409;SDS011;72049;51.766;6.846;2023-09-30T03:44:28;11.82;;;4.40;;
82409;SDS011;72049;51.766;6.846;2023-09-30T03:46:54;12.27;;;4.65;;
82409;SDS011;72049;51.766;6.846;2023-09-30T03:49:19;11.65;;;4.93;;
82409;SDS011;72049;51.766;6.846;2023-09-30T03:51:45;9.90;;;4.00;;
82409;SDS011;72049;51.766;6.846;2023-09-30T03:54:11;12.00;;;4.57;;
82409;SDS011;72049;51.766;6.846;2023-09-30T03:56:36;14.65;;;4.50;;
82409;SDS011;72049;51.766;6.846;2023-09-30T03:59:03;12.95;;;4.60;;
82409;SDS011;72049;51.766;6.846;2023-09-30T04:01:29;9.35;;;3.90;;
82409;SDS011;72049;51.766;6.846;2023-09-30T04:03:54;11.05;;;4.18;;
82409;SDS011;72049;51.766;6.846;2023-09-30T04:06:20;11.43;;;3.95;;
82409;SDS011;72049;51.766;6.846;2023-09-30T04:08:46;9.68;;;4.05;;
82409;SDS011;72049;51.766;6.846;2023-09-30T04:11:12;11.73;;;3.65;;
82409;SDS011;72049;51.766;6.846;2023-09-30T04:13:43;11.23;;;3.72;;
82409;SDS011;72049;51.766;6.846;2023-09-30T04:16:08;10.35;;;4.13;;
82409;SDS011;72049;51.766;6.846;2023-09-30T04:18:34;10.02;;;4.32;;
82409;SDS011;72049;51.766;6.846;2023-09-30T04:20:59;12.87;;;4.37;;
82409;SDS011;72049;51.766;6.846;2023-09-30T04:23:25;12.30;;;4.33;;
82409;SDS011;72049;51.766;6.846;2023-09-30T04:25:50;12.52;;;4.63;;
82409;SDS011;72049;51.766;6.846;2023-09-30T04:28:16;13.48;;;4.75;;
82409;SDS011;72049;51.766;6.846;2023-09-30T04:30:46;10.68;;;4.90;;
82409;SDS011;72049;51.766;6.846;2023-09-30T04:33:12;11.77;;;5.20;;
82409;SDS011;72049;51.766;6.846;2023-09-30T04:35:38;17.98;;;5.05;;
82409;SDS011;72049;51.766;6.846;2023-09-30T04:38:03;10.57;;;4.40;;
82409;SDS011;72049;51.766;6.846;2023-09-30T04:40:29;14.95;;;5.07;;
82409;SDS011;72049;51.766;6.846;2023-09-30T04:42:54;13.57;;;4.93;;
82409;SDS011;72049;51.766;6.846;2023-09-30T04:45:23;11.00;;;4.70;;
82409;SDS011;72049;51.766;6.846;2023-09-30T04:47:49;14.55;;;4.78;;
82409;SDS011;72049;51.766;6.846;2023-09-30T04:50:15;10.82;;;4.13;;
82409;SDS011;72049;51.766;6.846;2023-09-30T04:52:41;11.70;;;4.78;;
82409;SDS011;72049;51.766;6.846;2023-09-30T04:55:06;15.00;;;4.75;;
82409;SDS011;72049;51.766;6.846;2023-09-30T04:57:33;12.32;;;5.20;;
82409;SDS011;72049;51.766;6.846;2023-09-30T04:59:58;12.73;;;5.20;;
82409;SDS011;72049;51.766;6.846;2023-09-30T05:02:26;15.67;;;5.50;;
82409;SDS011;72049;51.766;6.846;2023-09-30T05:04:52;13.27;;;5.13;;
82409;SDS011;72049;51.766;6.846;2023-09-30T05:07:19;15.27;;;6.35;;
82409;SDS011;72049;51.766;6.846;2023-09-30T05:09:44;13.00;;;5.10;;
82409;SDS011;72049;51.766;6.846;2023-09-30T05:12:10;13.68;;;5.25;;
82409;SDS011;72049;51.766;6.846;2023-09-30T05:14:36;14.20;;;5.50;;
82409;SDS011;72049;51.766;6.846;2023-09-30T05:17:04;12.90;;;5.93;;
82409;SDS011;72049;51.766;6.846;2023-09-30T05:19:30;14.32;;;5.18;;
82409;SDS011;72049;51.766;6.846;2023-09-30T05:21:57;14.32;;;5.97;;
82409;SDS011;72049;51.766;6.846;2023-09-30T05:24:22;8.77;;;3.42;;
82409;SDS011;72049;51.766;6.846;2023-09-30T05:26:48;10.82;;;3.40;;
82409;SDS011;72049;51.766;6.846;2023-09-30T05:29:13;8.17;;;3.73;;
82409;SDS011;72049;51.766;6.846;2023-09-30T05:31:38;12.35;;;3.90;;
82409;SDS011;72049;51.766;6.846;2023-09-30T05:34:04;10.25;;;3.90;;
82409;SDS011;72049;51.766;6.846;2023-09-30T05:36:29;12.25;;;4.10;;
82409;SDS011;72049;51.766;6.846;2023-09-30T05:38:55;7.57;;;3.22;;
82409;SDS011;72049;51.766;6.846;2023-09-30T05:41:20;10.10;;;3.88;;
82409;SDS011;72049;51.766;6.846;2023-09-30T05:43:46;11.07;;;4.00;;
82409;SDS011;72049;51.766;6.846;2023-09-30T05:46:12;9.95;;;4.05;;
82409;SDS011;72049;51.766;6.846;2023-09-30T05:48:38;11.40;;;4.32;;
82409;SDS011;72049;51.766;6.846;2023-09-30T05:51:04;9.50;;;3.80;;
82409;SDS011;72049;51.766;6.846;2023-09-30T05:53:31;18.38;;;4.93;;
82409;SDS011;72049;51.766;6.846;2023-09-30T05:55:58;14.65;;;4.93;;
82409;SDS011;72049;51.766;6.846;2023-09-30T05:58:24;41.22;;;7.88;;
82409;SDS011;72049;51.766;6.846;2023-09-30T06:00:53;19.80;;;4.80;;
82409;SDS011;72049;51.766;6.846;2023-09-30T06:03:21;10.95;;;4.22;;
82409;SDS011;72049;51.766;6.846;2023-09-30T06:05:49;9.88;;;4.15;;
82409;SDS011;72049;51.766;6.846;2023-09-30T06:08:14;10.20;;;4.77;;
82409;SDS011;72049;51.766;6.846;2023-09-30T06:10:40;8.70;;;4.20;;
82409;SDS011;72049;51.766;6.846;2023-09-30T06:13:18;9.60;;;4.63;;
82409;SDS011;72049;51.766;6.846;2023-09-30T06:15:48;13.25;;;4.88;;
82409;SDS011;72049;51.766;6.846;2023-09-30T06:18:15;14.07;;;5.03;;
82409;SDS011;72049;51.766;6.846;2023-09-30T06:20:41;10.40;;;4.80;;
82409;SDS011;72049;51.766;6.846;2023-09-30T06:23:06;16.30;;;4.35;;
82409;SDS011;72049;51.766;6.846;2023-09-30T06:25:32;10.10;;;4.70;;
82409;SDS011;72049;51.766;6.846;2023-09-30T06:27:58;14.30;;;6.03;;
82409;SDS011;72049;51.766;6.846;2023-09-30T06:30:24;14.88;;;5.05;;
82409;SDS011;72049;51.766;6.846;2023-09-30T06:32:58;11.35;;;4.80;;
82409;SDS011;72049;51.766;6.846;2023-09-30T06:35:30;14.32;;;4.97;;
82409;SDS011;72049;51.766;6.846;2023-09-30T06:38:05;12.35;;;5.15;;
82409;SDS011;72049;51.766;6.846;2023-09-30T06:40:32;13.85;;;5.22;;
82409;SDS011;72049;51.766;6.846;2023-09-30T06:42:57;9.37;;;4.23;;
82409;SDS011;72049;51.766;6.846;2023-09-30T06:45:22;10.73;;;5.18;;
82409;SDS011;72049;51.766;6.846;2023-09-30T06:47:49;10.75;;;4.32;;
82409;SDS011;72049;51.766;6.846;2023-09-30T06:50:14;15.50;;;5.07;;
82409;SDS011;72049;51.766;6.846;2023-09-30T06:52:43;9.68;;;4.20;;
82409;SDS011;72049;51.766;6.846;2023-09-30T06:55:10;12.73;;;5.35;;
82409;SDS011;72049;51.766;6.846;2023-09-30T06:57:38;14.73;;;5.30;;
82409;SDS011;72049;51.766;6.846;2023-09-30T07:00:09;10.98;;;5.22;;
82409;SDS011;72049;51.766;6.846;2023-09-30T07:06:12;10.45;;;4.60;;
82409;SDS011;72049;51.766;6.846;2023-09-30T07:08:45;9.90;;;4.40;;
82409;SDS011;72049;51.766;6.846;2023-09-30T07:14:52;9.35;;;4.63;;
82409;SDS011;72049;51.766;6.846;2023-09-30T07:24:04;8.45;;;3.83;;
82409;SDS011;72049;51.766;6.846;2023-09-30T07:41:03;11.27;;;4.20;;
82409;SDS011;72049;51.766;6.846;2023-09-30T07:43:45;8.10;;;4.05;;
82409;SDS011;72049;51.766;6.846;2023-09-30T07:47:04;12.25;;;4.40;;
82409;SDS011;72049;51.766;6.846;2023-09-30T07:52:26;8.20;;;4.55;;
82409;SDS011;72049;51.766;6.846;2023-09-30T07:55:00;15.10;;;5.25;;
82409;SDS011;72049;51.766;6.846;2023-09-30T07:57:28;9.68;;;4.65;;
82409;SDS011;72049;51.766;6.846;2023-09-30T07:59:54;11.32;;;4.95;;
82409;SDS011;72049;51.766;6.846;2023-09-30T08:02:30;8.20;;;4.10;;
82409;SDS011;72049;51.766;6.846;2023-09-30T08:07:31;11.32;;;5.30;;
82409;SDS011;72049;51.766;6.846;2023-09-30T08:10:07;9.88;;;4.40;;
82409;SDS011;72049;51.766;6.846;2023-09-30T08:12:55;10.93;;;4.07;;
82409;SDS011;72049;51.766;6.846;2023-09-30T08:15:22;12.60;;;4.65;;
82409;SDS011;72049;51.766;6.846;2023-09-30T08:17:47;7.67;;;3.90;;
82409;SDS011;72049;51.766;6.846;2023-09-30T08:20:12;12.57;;;4.18;;
82409;SDS011;72049;51.766;6.846;2023-09-30T08:22:43;7.55;;;3.92;;
82409;SDS011;72049;51.766;6.846;2023-09-30T08:25:10;12.32;;;4.38;;
82409;SDS011;72049;51.766;6.846;2023-09-30T08:27:36;9.48;;;4.22;;
82409;SDS011;72049;51.766;6.846;2023-09-30T08:30:01;12.93;;;4.85;;
82409;SDS011;72049;51.766;6.846;2023-09-30T08:32:31;11.32;;;4.32;;
82409;SDS011;72049;51.766;6.846;2023-09-30T08:34:57;9.10;;;4.00;;
82409;SDS011;72049;51.766;6.846;2023-09-30T08:37:23;11.48;;;4.60;;
82409;SDS011;72049;51.766;6.846;2023-09-30T08:39:51;9.70;;;4.70;;
82409;SDS011;72049;51.766;6.846;2023-09-30T08:42:16;11.17;;;4.87;;
82409;SDS011;72049;51.766;6.846;2023-09-30T08:44:45;8.93;;;3.88;;
82409;SDS011;72049;51.766;6.846;2023-09-30T08:47:12;17.42;;;5.80;;
82409;SDS011;72049;51.766;6.846;2023-09-30T08:49:37;10.35;;;3.70;;
82409;SDS011;72049;51.766;6.846;2023-09-30T08:52:04;9.40;;;3.95;;
82409;SDS011;72049;51.766;6.846;2023-09-30T08:54:31;10.38;;;4.18;;
82409;SDS011;72049;51.766;6.846;2023-09-30T08:56:56;10.20;;;3.95;;
82409;SDS011;72049;51.766;6.846;2023-09-30T08:59:22;17.17;;;4.82;;
82409;SDS011;72049;51.766;6.846;2023-09-30T09:01:48;9.70;;;3.83;;
82409;SDS011;72049;51.766;6.846;2023-09-30T09:04:13;10.40;;;4.13;;
82409;SDS011;72049;51.766;6.846;2023-09-30T09:06:39;7.25;;;3.70;;
82409;SDS011;72049;51.766;6.846;2023-09-30T09:12:42;11.18;;;5.82;;
82409;SDS011;72049;51.766;6.846;2023-09-30T09:15:11;11.48;;;4.47;;
82409;SDS011;72049;51.766;6.846;2023-09-30T09:20:10;8.40;;;3.67;;
82409;SDS011;72049;51.766;6.846;2023-09-30T09:22:43;7.40;;;3.67;;
82409;SDS011;72049;51.766;6.846;2023-09-30T09:25:08;10.77;;;3.58;;
82409;SDS011;72049;51.766;6.846;2023-09-30T09:27:34;8.45;;;3.75;;
82409;SDS011;72049;51.766;6.846;2023-09-30T09:35:22;6.25;;;3.30;;
82409;SDS011;72049;51.766;6.846;2023-09-30T09:37:57;8.98;;;3.25;;
82409;SDS011;72049;51.766;6.846;2023-09-30T09:40:23;8.02;;;2.78;;
82409;SDS011;72049;51.766;6.846;2023-09-30T09:42:51;6.00;;;2.60;;
82409;SDS011;72049;51.766;6.846;2023-09-30T09:45:19;5.53;;;2.58;;
82409;SDS011;72049;51.766;6.846;2023-09-30T09:47:45;8.00;;;3.25;;
82409;SDS011;72049;51.766;6.846;2023-09-30T09:50:11;8.32;;;3.00;;
82409;SDS011;72049;51.766;6.846;2023-09-30T09:52:38;6.90;;;2.50;;
82409;SDS011;72049;51.766;6.846;2023-09-30T09:55:04;8.15;;;2.45;;
82409;SDS011;72049;51.766;6.846;2023-09-30T09:57:31;5.82;;;1.95;;
82409;SDS011;72049;51.766;6.846;2023-09-30T09:59:57;5.88;;;2.25;;
82409;SDS011;72049;51.766;6.846;2023-09-30T10:02:23;6.53;;;2.25;;
82409;SDS011;72049;51.766;6.846;2023-09-30T10:04:49;9.30;;;2.97;;
82409;SDS011;72049;51.766;6.846;2023-09-30T10:07:28;7.05;;;2.65;;
82409;SDS011;72049;51.766;6.846;2023-09-30T10:09:54;6.05;;;3.50;;
82409;SDS011;72049;51.766;6.846;2023-09-30T10:12:23;5.68;;;2.47;;
82409;SDS011;72049;51.766;6.846;2023-09-30T10:14:48;6.40;;;2.55;;
82409;SDS011;72049;51.766;6.846;2023-09-30T10:17:14;7.97;;;2.30;;
82409;SDS011;72049;51.766;6.846;2023-09-30T10:22:23;8.02;;;3.85;;
82409;SDS011;72049;51.766;6.846;2023-09-30T10:24:50;5.40;;;2.53;;
82409;SDS011;72049;51.766;6.846;2023-09-30T10:29:47;10.52;;;3.38;;
82409;SDS011;72049;51.766;6.846;2023-09-30T10:32:12;6.18;;;2.65;;
82409;SDS011;72049;51.766;6.846;2023-09-30T10:34:38;5.97;;;2.65;;
82409;SDS011;72049;51.766;6.846;2023-09-30T10:37:19;6.68;;;2.67;;
82409;SDS011;72049;51.766;6.846;2023-09-30T10:40:00;6.55;;;2.78;;
82409;SDS011;72049;51.766;6.846;2023-09-30T10:44:56;7.03;;;2.65;;
82409;SDS011;72049;51.766;6.846;2023-09-30T10:49:49;7.85;;;3.50;;
82409;SDS011;72049;51.766;6.846;2023-09-30T10:52:21;9.87;;;3.30;;
82409;SDS011;72049;51.766;6.846;2023-09-30T10:54:48;5.97;;;2.90;;
82409;SDS011;72049;51.766;6.846;2023-09-30T10:57:14;8.85;;;3.35;;
82409;SDS011;72049;51.766;6.846;2023-09-30T10:59:52;7.05;;;3.70;;
82409;SDS011;72049;51.766;6.846;2023-09-30T11:02:31;5.97;;;2.60;;
82409;SDS011;72049;51.766;6.846;2023-09-30T11:04:57;6.57;;;2.75;;
82409;SDS011;72049;51.766;6.846;2023-09-30T11:07:23;8.15;;;3.08;;
82409;SDS011;72049;51.766;6.846;2023-09-30T11:09:54;6.53;;;2.92;;
82409;SDS011;72049;51.766;6.846;2023-09-30T11:12:25;5.63;;;2.40;;
82409;SDS011;72049;51.766;6.846;2023-09-30T11:14:58;6.82;;;2.70;;
82409;SDS011;72049;51.766;6.846;2023-09-30T11:17:23;6.03;;;2.45;;
82409;SDS011;72049;51.766;6.846;2023-09-30T11:19:49;8.43;;;2.97;;
82409;SDS011;72049;51.766;6.846;2023-09-30T11:22:14;8.60;;;3.05;;
82409;SDS011;72049;51.766;6.846;2023-09-30T11:24:40;8.25;;;2.75;;
82409;SDS011;72049;51.766;6.846;2023-09-30T11:27:05;6.55;;;2.67;;
82409;SDS011;72049;51.766;6.846;2023-09-30T11:32:38;6.28;;;3.25;;
82409;SDS011;72049;51.766;6.846;2023-09-30T11:35:08;6.38;;;3.20;;
82409;SDS011;72049;51.766;6.846;2023-09-30T11:37:33;6.60;;;3.20;;
82409;SDS011;72049;51.766;6.846;2023-09-30T11:40:09;6.85;;;2.58;;
82409;SDS011;72049;51.766;6.846;2023-09-30T11:42:34;19.60;;;5.35;;
82409;SDS011;72049;51.766;6.846;2023-09-30T11:44:59;5.87;;;2.07;;
82409;SDS011;72049;51.766;6.846;2023-09-30T11:47:28;8.98;;;2.75;;
82409;SDS011;72049;51.766;6.846;2023-09-30T11:49:55;5.03;;;1.73;;
82409;SDS011;72049;51.766;6.846;2023-09-30T11:52:26;4.15;;;1.60;;
82409;SDS011;72049;51.766;6.846;2023-09-30T11:57:17;4.43;;;2.08;;
82409;SDS011;72049;51.766;6.846;2023-09-30T11:59:44;7.53;;;2.33;;
82409;SDS011;72049;51.766;6.846;2023-09-30T12:02:11;4.15;;;2.20;;
82409;SDS011;72049;51.766;6.846;2023-09-30T12:04:36;4.75;;;1.48;;
82409;SDS011;72049;51.766;6.846;2023-09-30T12:07:02;4.53;;;1.75;;
82409;SDS011;72049;51.766;6.846;2023-09-30T12:09:27;4.72;;;2.10;;
82409;SDS011;72049;51.766;6.846;2023-09-30T12:11:56;5.63;;;2.30;;
82409;SDS011;72049;51.766;6.846;2023-09-30T12:14:24;4.85;;;2.05;;
82409;SDS011;72049;51.766;6.846;2023-09-30T12:16:50;5.17;;;2.10;;
82409;SDS011;72049;51.766;6.846;2023-09-30T12:19:18;4.78;;;1.90;;
82409;SDS011;72049;51.766;6.846;2023-09-30T12:21:43;5.78;;;2.83;;
82409;SDS011;72049;51.766;6.846;2023-09-30T12:24:12;6.07;;;2.30;;
82409;SDS011;72049;51.766;6.846;2023-09-30T12:26:41;5.88;;;2.25;;
82409;SDS011;72049;51.766;6.846;2023-09-30T12:29:06;6.07;;;2.42;;
82409;SDS011;72049;51.766;6.846;2023-09-30T12:31:34;4.70;;;1.90;;
82409;SDS011;72049;51.766;6.846;2023-09-30T12:33:59;4.70;;;2.60;;
82409;SDS011;72049;51.766;6.846;2023-09-30T12:36:27;4.97;;;2.67;;
82409;SDS011;72049;51.766;6.846;2023-09-30T12:38:52;4.50;;;1.87;;
82409;SDS011;72049;51.766;6.846;2023-09-30T12:41:17;5.73;;;1.80;;
82409;SDS011;72049;51.766;6.846;2023-09-30T12:43:44;3.97;;;1.95;;
82409;SDS011;72049;51.766;6.846;2023-09-30T12:46:09;5.47;;;2.35;;
82409;SDS011;72049;51.766;6.846;2023-09-30T12:48:39;6.32;;;1.95;;
82409;SDS011;72049;51.766;6.846;2023-09-30T12:51:07;6.47;;;2.13;;
82409;SDS011;72049;51.766;6.846;2023-09-30T12:53:35;5.95;;;1.52;;
82409;SDS011;72049;51.766;6.846;2023-09-30T12:56:00;4.47;;;2.50;;
82409;SDS011;72049;51.766;6.846;2023-09-30T12:58:25;5.87;;;1.90;;
82409;SDS011;72049;51.766;6.846;2023-09-30T13:00:53;3.58;;;1.85;;
82409;SDS011;72049;51.766;6.846;2023-09-30T13:03:19;2.95;;;1.77;;
82409;SDS011;72049;51.766;6.846;2023-09-30T13:05:44;4.70;;;1.90;;
82409;SDS011;72049;51.766;6.846;2023-09-30T13:08:09;2.57;;;1.70;;
82409;SDS011;72049;51.766;6.846;2023-09-30T13:10:36;3.63;;;2.20;;
82409;SDS011;72049;51.766;6.846;2023-09-30T13:13:02;4.80;;;1.65;;
82409;SDS011;72049;51.766;6.846;2023-09-30T13:15:29;4.53;;;1.92;;
82409;SDS011;72049;51.766;6.846;2023-09-30T13:17:54;6.57;;;2.23;;
82409;SDS011;72049;51.766;6.846;2023-09-30T13:20:20;6.20;;;2.03;;
82409;SDS011;72049;51.766;6.846;2023-09-30T13:22:45;4.72;;;2.40;;
82409;SDS011;72049;51.766;6.846;2023-09-30T13:25:11;5.63;;;1.90;;
82409;SDS011;72049;51.766;6.846;2023-09-30T13:27:38;6.88;;;2.60;;
82409;SDS011;72049;51.766;6.846;2023-09-30T13:30:03;4.18;;;2.50;;
82409;SDS011;72049;51.766;6.846;2023-09-30T13:32:29;6.40;;;2.13;;
82409;SDS011;72049;51.766;6.846;2023-09-30T13:34:54;6.60;;;1.85;;
82409;SDS011;72049;51.766;6.846;2023-09-30T13:37:20;3.25;;;1.20;;
82409;SDS011;72049;51.766;6.846;2023-09-30T13:39:45;3.95;;;1.50;;
82409;SDS011;72049;51.766;6.846;2023-09-30T13:42:11;3.80;;;1.27;;
82409;SDS011;72049;51.766;6.846;2023-09-30T13:44:36;3.38;;;1.45;;
82409;SDS011;72049;51.766;6.846;2023-09-30T13:47:01;3.45;;;1.67;;
82409;SDS011;72049;51.766;6.846;2023-09-30T13:49:27;5.57;;;1.92;;
82409;SDS011;72049;51.766;6.846;2023-09-30T13:51:52;5.10;;;1.70;;
82409;SDS011;72049;51.766;6.846;2023-09-30T13:54:17;4.83;;;2.40;;
82409;SDS011;72049;51.766;6.846;2023-09-30T13:56:42;5.32;;;2.17;;
82409;SDS011;72049;51.766;6.846;2023-09-30T13:59:09;4.93;;;2.22;;
82409;SDS011;72049;51.766;6.846;2023-09-30T14:01:34;3.97;;;1.93;;
82409;SDS011;72049;51.766;6.846;2023-09-30T14:04:00;5.00;;;2.38;;
82409;SDS011;72049;51.766;6.846;2023-09-30T14:06:25;2.97;;;1.48;;
82409;SDS011;72049;51.766;6.846;2023-09-30T14:08:51;4.47;;;1.88;;
82409;SDS011;72049;51.766;6.846;2023-09-30T14:11:18;3.97;;;2.10;;
82409;SDS011;72049;51.766;6.846;2023-09-30T14:13:43;4.97;;;2.08;;
82409;SDS011;72049;51.766;6.846;2023-09-30T14:16:08;4.55;;;1.98;;
82409;SDS011;72049;51.766;6.846;2023-09-30T14:18:34;3.60;;;2.50;;
82409;SDS011;72049;51.766;6.846;2023-09-30T14:21:02;5.20;;;2.38;;
82409;SDS011;72049;51.766;6.846;2023-09-30T14:23:27;7.47;;;2.20;;
82409;SDS011;72049;51.766;6.846;2023-09-30T14:25:54;7.10;;;2.30;;
82409;SDS011;72049;51.766;6.846;2023-09-30T14:28:20;4.18;;;2.20;;
82409;SDS011;72049;51.766;6.846;2023-09-30T14:30:46;6.50;;;2.20;;
82409;SDS011;72049;51.766;6.846;2023-09-30T14:33:11;5.30;;;2.23;;
82409;SDS011;72049;51.766;6.846;2023-09-30T14:35:36;3.22;;;2.17;;
82409;SDS011;72049;51.766;6.846;2023-09-30T14:38:04;4.57;;;2.57;;
82409;SDS011;72049;51.766;6.846;2023-09-30T14:40:30;6.40;;;2.20;;
82409;SDS011;72049;51.766;6.846;2023-09-30T14:42:55;3.85;;;2.35;;
82409;SDS011;72049;51.766;6.846;2023-09-30T14:45:20;4.53;;;2.03;;
82409;SDS011;72049;51.766;6.846;2023-09-30T14:47:46;4.60;;;2.90;;
82409;SDS011;72049;51.766;6.846;2023-09-30T14:50:12;5.28;;;3.42;;
82409;SDS011;72049;51.766;6.846;2023-09-30T14:52:37;9.33;;;3.90;;
82409;SDS011;72049;51.766;6.846;2023-09-30T14:55:02;7.83;;;3.90;;
82409;SDS011;72049;51.766;6.846;2023-09-30T14:57:28;7.90;;;4.15;;
82409;SDS011;72049;51.766;6.846;2023-09-30T14:59:53;7.10;;;3.87;;
82409;SDS011;72049;51.766;6.846;2023-09-30T15:02:18;10.82;;;6.50;;
82409;SDS011;72049;51.766;6.846;2023-09-30T15:04:44;8.33;;;4.07;;
82409;SDS011;72049;51.766;6.846;2023-09-30T15:07:09;6.77;;;3.77;;
82409;SDS011;72049;51.766;6.846;2023-09-30T15:09:34;6.30;;;3.43;;
82409;SDS011;72049;51.766;6.846;2023-09-30T15:12:00;8.68;;;4.47;;
82409;SDS011;72049;51.766;6.846;2023-09-30T15:14:25;8.05;;;3.13;;
82409;SDS011;72049;51.766;6.846;2023-09-30T15:16:50;5.07;;;2.77;;
82409;SDS011;72049;51.766;6.846;2023-09-30T15:19:16;5.27;;;2.60;;
82409;SDS011;72049;51.766;6.846;2023-09-30T15:21:41;5.85;;;2.97;;
82409;SDS011;72049;51.766;6.846;2023-09-30T15:24:07;4.10;;;2.60;;
82409;SDS011;72049;51.766;6.846;2023-09-30T15:26:32;7.68;;;2.17;;
82409;SDS011;72049;51.766;6.846;2023-09-30T15:28:58;4.55;;;1.95;;
82409;SDS011;72049;51.766;6.846;2023-09-30T15:31:27;8.38;;;3.03;;
82409;SDS011;72049;51.766;6.846;2023-09-30T15:33:53;5.05;;;3.08;;
82409;SDS011;72049;51.766;6.846;2023-09-30T15:36:18;6.07;;;3.20;;
82409;SDS011;72049;51.766;6.846;2023-09-30T15:38:43;7.13;;;3.40;;
82409;SDS011;72049;51.766;6.846;2023-09-30T15:41:09;5.20;;;3.17;;
82409;SDS011;72049;51.766;6.846;2023-09-30T15:43:36;5.55;;;2.40;;
82409;SDS011;72049;51.766;6.846;2023-09-30T15:46:01;6.40;;;3.33;;
82409;SDS011;72049;51.766;6.846;2023-09-30T15:48:27;7.77;;;2.87;;